sensor_id;sensor_type;location;lat;lon;timestamp;pressure;altitude;pressure_sealevel;temperature;humidity
80493;BME280;69818;50.172;19.144;2023-05-06T00:01:09;101800;;;29.66;25
80493;BME280;69818;50.172;19.144;2023-05-06T00:06:20;101800;;;29.63;25
80493;BME280;69818;50.172;19.144;2023-05-06T00:11:31;101800;;;29.62;25
80493;BME280;69818;50.172;19.144;2023-05-06T00:16:42;101800;;;29.59;25
80493;BME280;69818;50.172;19.144;2023-05-06T00:21:52;101800;;;29.60;25
80493;BME280;69818;50.172;19.144;2023-05-06T00:27:03;101700;;;29.57;25
80493;BME280;69818;50.172;19.144;2023-05-06T00:32:14;101700;;;29.53;25
80493;BME280;69818;50.172;19.144;2023-05-06T00:37:25;101700;;;29.51;25
80493;BME280;69818;50.172;19.144;2023-05-06T00:42:35;101700;;;29.50;25
80493;BME280;69818;50.172;19.144;2023-05-06T00:47:46;101700;;;29.50;25
80493;BME280;69818;50.172;19.144;2023-05-06T00:52:57;101700;;;29.55;26
80493;BME280;69818;50.172;19.144;2023-05-06T00:58:08;101700;;;29.48;26
80493;BME280;69818;50.172;19.144;2023-05-06T01:03:18;101700;;;29.51;26
80493;BME280;69818;50.172;19.144;2023-05-06T01:13:47;101700;;;29.50;26
80493;BME280;69818;50.172;19.144;2023-05-06T01:18:51;101700;;;29.47;26
80493;BME280;69818;50.172;19.144;2023-05-06T01:24:01;101700;;;29.48;26
80493;BME280;69818;50.172;19.144;2023-05-06T01:29:12;101700;;;29.42;26
80493;BME280;69818;50.172;19.144;2023-05-06T01:39:33;101700;;;29.37;26
80493;BME280;69818;50.172;19.144;2023-05-06T01:44:45;101700;;;29.36;26
80493;BME280;69818;50.172;19.144;2023-05-06T01:49:56;101700;;;29.34;26
80493;BME280;69818;50.172;19.144;2023-05-06T01:55:06;101700;;;29.34;26
80493;BME280;69818;50.172;19.144;2023-05-06T02:05:32;101700;;;29.31;26
80493;BME280;69818;50.172;19.144;2023-05-06T02:10:38;101700;;;29.31;26
80493;BME280;69818;50.172;19.144;2023-05-06T02:15:52;101700;;;29.28;26
80493;BME280;69818;50.172;19.144;2023-05-06T02:21:00;101700;;;29.26;26
80493;BME280;69818;50.172;19.144;2023-05-06T02:26:10;101700;;;29.26;26
80493;BME280;69818;50.172;19.144;2023-05-06T02:31:21;101700;;;29.22;26
80493;BME280;69818;50.172;19.144;2023-05-06T02:36:32;101700;;;29.25;26
80493;BME280;69818;50.172;19.144;2023-05-06T02:41:42;101700;;;29.22;26
80493;BME280;69818;50.172;19.144;2023-05-06T02:46:53;101700;;;29.21;26
80493;BME280;69818;50.172;19.144;2023-05-06T02:52:04;101700;;;29.20;26
80493;BME280;69818;50.172;19.144;2023-05-06T02:57:15;101700;;;29.18;26
80493;BME280;69818;50.172;19.144;2023-05-06T03:02:25;101700;;;29.17;26
80493;BME280;69818;50.172;19.144;2023-05-06T03:07:37;101700;;;29.17;26
80493;BME280;69818;50.172;19.144;2023-05-06T03:12:47;101700;;;29.15;26
80493;BME280;69818;50.172;19.144;2023-05-06T03:17:58;101700;;;29.14;26
80493;BME280;69818;50.172;19.144;2023-05-06T03:23:08;101700;;;29.14;26
80493;BME280;69818;50.172;19.144;2023-05-06T03:28:19;101700;;;29.12;26
80493;BME280;69818;50.172;19.144;2023-05-06T03:33:30;101700;;;29.11;26
80493;BME280;69818;50.172;19.144;2023-05-06T03:38:41;101700;;;29.08;26
80493;BME280;69818;50.172;19.144;2023-05-06T03:43:51;101700;;;29.09;27
80493;BME280;69818;50.172;19.144;2023-05-06T03:49:02;101700;;;29.10;27
80493;BME280;69818;50.172;19.144;2023-05-06T03:54:13;101700;;;29.13;26
80493;BME280;69818;50.172;19.144;2023-05-06T03:59:24;101700;;;29.06;27
80493;BME280;69818;50.172;19.144;2023-05-06T04:04:34;101700;;;29.09;27
80493;BME280;69818;50.172;19.144;2023-05-06T04:09:45;101700;;;29.08;27
80493;BME280;69818;50.172;19.144;2023-05-06T04:14:56;101700;;;29.08;27
80493;BME280;69818;50.172;19.144;2023-05-06T04:20:07;101700;;;29.06;27
80493;BME280;69818;50.172;19.144;2023-05-06T04:25:17;101700;;;29.06;27
80493;BME280;69818;50.172;19.144;2023-05-06T04:30:28;101700;;;29.06;27
80493;BME280;69818;50.172;19.144;2023-05-06T04:35:39;101700;;;29.04;27
80493;BME280;69818;50.172;19.144;2023-05-06T04:40:50;101700;;;29.05;27
80493;BME280;69818;50.172;19.144;2023-05-06T04:46:00;101700;;;29.01;27
80493;BME280;69818;50.172;19.144;2023-05-06T04:51:11;101700;;;29.03;27
80493;BME280;69818;50.172;19.144;2023-05-06T04:56:22;101700;;;29.02;27
80493;BME280;69818;50.172;19.144;2023-05-06T05:01:33;101700;;;29.00;27
80493;BME280;69818;50.172;19.144;2023-05-06T05:06:43;101700;;;29.01;27
80493;BME280;69818;50.172;19.144;2023-05-06T05:11:54;101700;;;29.00;27
80493;BME280;69818;50.172;19.144;2023-05-06T05:17:05;101700;;;29.00;27
80493;BME280;69818;50.172;19.144;2023-05-06T05:22:15;101700;;;29.08;27
80493;BME280;69818;50.172;19.144;2023-05-06T05:27:26;101700;;;29.18;27
80493;BME280;69818;50.172;19.144;2023-05-06T05:32:37;101700;;;29.28;27
80493;BME280;69818;50.172;19.144;2023-05-06T05:37:48;101700;;;29.39;27
80493;BME280;69818;50.172;19.144;2023-05-06T05:42:58;101700;;;29.53;27
80493;BME280;69818;50.172;19.144;2023-05-06T05:48:09;101700;;;29.70;27
80493;BME280;69818;50.172;19.144;2023-05-06T05:53:20;101700;;;29.84;27
80493;BME280;69818;50.172;19.144;2023-05-06T05:58:31;101600;;;29.96;27
80493;BME280;69818;50.172;19.144;2023-05-06T06:03:42;101600;;;30.10;27
80493;BME280;69818;50.172;19.144;2023-05-06T06:08:52;101600;;;30.13;27
80493;BME280;69818;50.172;19.144;2023-05-06T06:14:03;101600;;;30.29;26
80493;BME280;69818;50.172;19.144;2023-05-06T06:19:14;101600;;;30.34;26
80493;BME280;69818;50.172;19.144;2023-05-06T06:24:24;101600;;;30.39;26
80493;BME280;69818;50.172;19.144;2023-05-06T06:29:35;101600;;;30.48;27
80493;BME280;69818;50.172;19.144;2023-05-06T06:34:46;101600;;;30.72;26
80493;BME280;69818;50.172;19.144;2023-05-06T06:39:57;101600;;;30.56;26
80493;BME280;69818;50.172;19.144;2023-05-06T06:45:08;101600;;;30.59;26
80493;BME280;69818;50.172;19.144;2023-05-06T06:50:18;101600;;;30.59;26
80493;BME280;69818;50.172;19.144;2023-05-06T06:55:29;101600;;;30.62;26
80493;BME280;69818;50.172;19.144;2023-05-06T07:00:40;101600;;;30.66;26
80493;BME280;69818;50.172;19.144;2023-05-06T07:05:50;101600;;;30.60;26
80493;BME280;69818;50.172;19.144;2023-05-06T07:11:01;101600;;;30.59;26
80493;BME280;69818;50.172;19.144;2023-05-06T07:16:12;101600;;;30.53;26
80493;BME280;69818;50.172;19.144;2023-05-06T07:21:23;101600;;;30.56;26
80493;BME280;69818;50.172;19.144;2023-05-06T07:26:37;101600;;;30.57;26
80493;BME280;69818;50.172;19.144;2023-05-06T07:31:44;101600;;;30.65;26
80493;BME280;69818;50.172;19.144;2023-05-06T07:36:55;101600;;;30.68;26
80493;BME280;69818;50.172;19.144;2023-05-06T07:42:06;101600;;;30.63;26
80493;BME280;69818;50.172;19.144;2023-05-06T07:52:27;101600;;;30.62;26
80493;BME280;69818;50.172;19.144;2023-05-06T07:57:38;101600;;;30.60;26
80493;BME280;69818;50.172;19.144;2023-05-06T08:02:49;101600;;;30.59;27
80493;BME280;69818;50.172;19.144;2023-05-06T08:07:59;101500;;;30.57;27
80493;BME280;69818;50.172;19.144;2023-05-06T08:13:10;101500;;;30.60;27
80493;BME280;69818;50.172;19.144;2023-05-06T08:18:21;101600;;;30.62;27
80493;BME280;69818;50.172;19.144;2023-05-06T08:23:31;101600;;;30.35;27
80493;BME280;69818;50.172;19.144;2023-05-06T08:33:14;101500;;;30.56;27
80493;BME280;69818;50.172;19.144;2023-05-06T08:38:24;101500;;;30.71;27
80493;BME280;69818;50.172;19.144;2023-05-06T08:48:46;101500;;;30.64;26
80493;BME280;69818;50.172;19.144;2023-05-06T08:59:07;101500;;;30.63;27
80493;BME280;69818;50.172;19.144;2023-05-06T09:04:18;101500;;;30.44;27
80493;BME280;69818;50.172;19.144;2023-05-06T09:09:29;101500;;;30.53;27
80493;BME280;69818;50.172;19.144;2023-05-06T09:14:40;101500;;;30.39;27
80493;BME280;69818;50.172;19.144;2023-05-06T09:19:51;101500;;;30.52;27
80493;BME280;69818;50.172;19.144;2023-05-06T09:25:02;101500;;;30.48;27
80493;BME280;69818;50.172;19.144;2023-05-06T09:35:03;101500;;;30.57;28
80493;BME280;69818;50.172;19.144;2023-05-06T09:40:12;101500;;;30.68;28
80493;BME280;69818;50.172;19.144;2023-05-06T09:45:23;101500;;;30.66;28
80493;BME280;69818;50.172;19.144;2023-05-06T09:50:35;101500;;;30.71;28
80493;BME280;69818;50.172;19.144;2023-05-06T10:13:48;101600;;;30.50;29
80493;BME280;69818;50.172;19.144;2023-05-06T10:18:59;101600;;;30.59;29
80493;BME280;69818;50.172;19.144;2023-05-06T10:24:10;101500;;;30.47;29
80493;BME280;69818;50.172;19.144;2023-05-06T10:29:20;101500;;;30.38;29
80493;BME280;69818;50.172;19.144;2023-05-06T10:34:33;101500;;;30.30;29
80493;BME280;69818;50.172;19.144;2023-05-06T10:39:42;101500;;;30.29;30
80493;BME280;69818;50.172;19.144;2023-05-06T10:44:58;101500;;;30.20;30
80493;BME280;69818;50.172;19.144;2023-05-06T11:00:24;101500;;;30.15;30
80493;BME280;69818;50.172;19.144;2023-05-06T11:05:53;101500;;;30.12;30
80493;BME280;69818;50.172;19.144;2023-05-06T11:10:45;101500;;;29.86;33
80493;BME280;69818;50.172;19.144;2023-05-06T11:15:57;101500;;;30.11;30
80493;BME280;69818;50.172;19.144;2023-05-06T11:26:18;101500;;;29.94;31
80493;BME280;69818;50.172;19.144;2023-05-06T11:31:29;101500;;;29.95;31
80493;BME280;69818;50.172;19.144;2023-05-06T11:41:51;101500;;;29.85;31
80493;BME280;69818;50.172;19.144;2023-05-06T11:47:02;101500;;;29.91;31
80493;BME280;69818;50.172;19.144;2023-05-06T11:52:12;101500;;;29.77;31
80493;BME280;69818;50.172;19.144;2023-05-06T11:57:22;101500;;;29.64;32
80493;BME280;69818;50.172;19.144;2023-05-06T12:02:33;101500;;;29.75;31
80493;BME280;69818;50.172;19.144;2023-05-06T12:07:43;101500;;;29.58;32
80493;BME280;69818;50.172;19.144;2023-05-06T12:12:54;101500;;;29.59;32
80493;BME280;69818;50.172;19.144;2023-05-06T12:18:05;101500;;;29.54;32
80493;BME280;69818;50.172;19.144;2023-05-06T12:23:16;101500;;;29.54;32
80493;BME280;69818;50.172;19.144;2023-05-06T12:28:26;101500;;;29.51;32
80493;BME280;69818;50.172;19.144;2023-05-06T12:33:44;101500;;;29.49;32
80493;BME280;69818;50.172;19.144;2023-05-06T12:38:56;101500;;;29.45;32
80493;BME280;69818;50.172;19.144;2023-05-06T12:43:59;101500;;;29.42;32
80493;BME280;69818;50.172;19.144;2023-05-06T12:49:09;101500;;;29.42;32
80493;BME280;69818;50.172;19.144;2023-05-06T12:59:31;101500;;;29.37;32
80493;BME280;69818;50.172;19.144;2023-05-06T13:04:42;101500;;;29.34;32
80493;BME280;69818;50.172;19.144;2023-05-06T13:09:52;101500;;;29.32;32
80493;BME280;69818;50.172;19.144;2023-05-06T13:15:03;101500;;;29.35;32
80493;BME280;69818;50.172;19.144;2023-05-06T13:20:14;101500;;;29.29;32
80493;BME280;69818;50.172;19.144;2023-05-06T13:25:25;101500;;;29.30;32
80493;BME280;69818;50.172;19.144;2023-05-06T13:30:35;101500;;;29.37;32
80493;BME280;69818;50.172;19.144;2023-05-06T13:35:46;101500;;;29.50;33
80493;BME280;69818;50.172;19.144;2023-05-06T13:40:57;101500;;;29.59;33
80493;BME280;69818;50.172;19.144;2023-05-06T13:46:08;101500;;;29.71;33
80493;BME280;69818;50.172;19.144;2023-05-06T13:51:18;101500;;;29.79;32
80493;BME280;69818;50.172;19.144;2023-05-06T13:56:29;101500;;;29.89;32
80493;BME280;69818;50.172;19.144;2023-05-06T14:01:40;101500;;;29.99;32
80493;BME280;69818;50.172;19.144;2023-05-06T14:06:50;101500;;;30.10;32
80493;BME280;69818;50.172;19.144;2023-05-06T14:12:01;101500;;;30.15;32
80493;BME280;69818;50.172;19.144;2023-05-06T14:17:12;101500;;;30.22;32
80493;BME280;69818;50.172;19.144;2023-05-06T14:22:23;101500;;;30.30;32
80493;BME280;69818;50.172;19.144;2023-05-06T14:27:33;101500;;;30.31;32
80493;BME280;69818;50.172;19.144;2023-05-06T14:32:44;101500;;;30.36;32
80493;BME280;69818;50.172;19.144;2023-05-06T14:37:55;101500;;;30.43;32
80493;BME280;69818;50.172;19.144;2023-05-06T14:43:06;101500;;;30.46;32
80493;BME280;69818;50.172;19.144;2023-05-06T14:48:16;101500;;;30.47;32
80493;BME280;69818;50.172;19.144;2023-05-06T14:53:27;101500;;;30.43;32
80493;BME280;69818;50.172;19.144;2023-05-06T14:58:38;101500;;;30.46;32
80493;BME280;69818;50.172;19.144;2023-05-06T15:03:49;101500;;;30.45;32
80493;BME280;69818;50.172;19.144;2023-05-06T15:09:00;101500;;;30.47;32
80493;BME280;69818;50.172;19.144;2023-05-06T15:14:10;101500;;;30.48;32
80493;BME280;69818;50.172;19.144;2023-05-06T15:19:21;101500;;;30.46;32
80493;BME280;69818;50.172;19.144;2023-05-06T15:24:32;101500;;;30.35;32
80493;BME280;69818;50.172;19.144;2023-05-06T15:29:42;101500;;;30.44;32
80493;BME280;69818;50.172;19.144;2023-05-06T15:34:53;101500;;;30.41;32
80493;BME280;69818;50.172;19.144;2023-05-06T15:40:08;101500;;;30.36;32
80493;BME280;69818;50.172;19.144;2023-05-06T15:45:15;101500;;;30.39;32
80493;BME280;69818;50.172;19.144;2023-05-06T15:50:25;101500;;;30.35;32
80493;BME280;69818;50.172;19.144;2023-05-06T15:55:36;101500;;;30.33;32
80493;BME280;69818;50.172;19.144;2023-05-06T16:00:47;101500;;;30.36;32
80493;BME280;69818;50.172;19.144;2023-05-06T16:05:58;101500;;;30.29;32
80493;BME280;69818;50.172;19.144;2023-05-06T16:11:08;101500;;;30.31;32
80493;BME280;69818;50.172;19.144;2023-05-06T16:16:19;101500;;;30.31;32
80493;BME280;69818;50.172;19.144;2023-05-06T16:21:30;101500;;;30.27;32
80493;BME280;69818;50.172;19.144;2023-05-06T16:26:41;101500;;;30.22;32
80493;BME280;69818;50.172;19.144;2023-05-06T16:31:51;101500;;;30.22;32
80493;BME280;69818;50.172;19.144;2023-05-06T16:37:02;101500;;;30.24;32
80493;BME280;69818;50.172;19.144;2023-05-06T16:42:13;101500;;;30.15;32
80493;BME280;69818;50.172;19.144;2023-05-06T16:47:24;101500;;;30.16;32
80493;BME280;69818;50.172;19.144;2023-05-06T16:52:35;101500;;;30.14;32
80493;BME280;69818;50.172;19.144;2023-05-06T16:57:45;101500;;;30.12;32
80493;BME280;69818;50.172;19.144;2023-05-06T17:02:56;101500;;;30.12;32
80493;BME280;69818;50.172;19.144;2023-05-06T17:08:06;101500;;;30.08;32
80493;BME280;69818;50.172;19.144;2023-05-06T17:13:17;101500;;;30.07;32
80493;BME280;69818;50.172;19.144;2023-05-06T17:18:28;101500;;;30.05;32
80493;BME280;69818;50.172;19.144;2023-05-06T17:23:39;101500;;;30.04;32
80493;BME280;69818;50.172;19.144;2023-05-06T17:28:50;101500;;;29.97;32
80493;BME280;69818;50.172;19.144;2023-05-06T17:34:00;101500;;;30.02;32
80493;BME280;69818;50.172;19.144;2023-05-06T17:39:11;101500;;;29.94;32
80493;BME280;69818;50.172;19.144;2023-05-06T17:44:22;101500;;;29.91;32
80493;BME280;69818;50.172;19.144;2023-05-06T17:49:32;101500;;;29.90;32
80493;BME280;69818;50.172;19.144;2023-05-06T17:54:43;101500;;;29.85;32
80493;BME280;69818;50.172;19.144;2023-05-06T17:59:54;101500;;;29.90;32
80493;BME280;69818;50.172;19.144;2023-05-06T18:05:05;101500;;;29.89;32
80493;BME280;69818;50.172;19.144;2023-05-06T18:10:16;101500;;;29.83;32
80493;BME280;69818;50.172;19.144;2023-05-06T18:15:26;101600;;;29.79;32
80493;BME280;69818;50.172;19.144;2023-05-06T18:20:37;101600;;;29.82;32
80493;BME280;69818;50.172;19.144;2023-05-06T18:25:48;101600;;;29.74;32
80493;BME280;69818;50.172;19.144;2023-05-06T18:30:59;101600;;;29.73;32
80493;BME280;69818;50.172;19.144;2023-05-06T18:36:10;101600;;;29.69;32
80493;BME280;69818;50.172;19.144;2023-05-06T18:41:20;101600;;;29.73;32
80493;BME280;69818;50.172;19.144;2023-05-06T18:46:31;101600;;;29.65;32
80493;BME280;69818;50.172;19.144;2023-05-06T18:51:41;101600;;;29.72;32
80493;BME280;69818;50.172;19.144;2023-05-06T18:56:52;101600;;;29.73;32
80493;BME280;69818;50.172;19.144;2023-05-06T19:02:03;101600;;;29.79;32
80493;BME280;69818;50.172;19.144;2023-05-06T19:07:14;101600;;;29.84;32
80493;BME280;69818;50.172;19.144;2023-05-06T19:12:24;101600;;;29.97;32
80493;BME280;69818;50.172;19.144;2023-05-06T19:17:35;101600;;;30.08;32
80493;BME280;69818;50.172;19.144;2023-05-06T19:22:46;101600;;;30.15;32
80493;BME280;69818;50.172;19.144;2023-05-06T19:27:57;101600;;;30.24;32
80493;BME280;69818;50.172;19.144;2023-05-06T19:33:08;101600;;;30.31;32
80493;BME280;69818;50.172;19.144;2023-05-06T19:38:18;101600;;;30.33;31
80493;BME280;69818;50.172;19.144;2023-05-06T19:43:29;101600;;;30.35;31
80493;BME280;69818;50.172;19.144;2023-05-06T19:48:40;101600;;;30.48;31
80493;BME280;69818;50.172;19.144;2023-05-06T19:53:50;101600;;;30.48;31
80493;BME280;69818;50.172;19.144;2023-05-06T19:59:01;101600;;;30.48;31
80493;BME280;69818;50.172;19.144;2023-05-06T20:04:12;101600;;;30.52;31
80493;BME280;69818;50.172;19.144;2023-05-06T20:09:23;101600;;;30.53;31
80493;BME280;69818;50.172;19.144;2023-05-06T20:14:33;101600;;;30.44;31
80493;BME280;69818;50.172;19.144;2023-05-06T20:19:44;101600;;;30.47;31
80493;BME280;69818;50.172;19.144;2023-05-06T20:25:05;101700;;;30.51;31
80493;BME280;69818;50.172;19.144;2023-05-06T20:30:06;101700;;;30.51;31
80493;BME280;69818;50.172;19.144;2023-05-06T20:35:17;101700;;;30.50;31
80493;BME280;69818;50.172;19.144;2023-05-06T20:40:27;101700;;;30.46;31
80493;BME280;69818;50.172;19.144;2023-05-06T20:45:38;101700;;;30.51;31
80493;BME280;69818;50.172;19.144;2023-05-06T20:50:49;101700;;;30.49;31
80493;BME280;69818;50.172;19.144;2023-05-06T20:55:59;101700;;;30.53;31
80493;BME280;69818;50.172;19.144;2023-05-06T21:01:10;101700;;;30.51;31
80493;BME280;69818;50.172;19.144;2023-05-06T21:06:21;101700;;;30.51;31
80493;BME280;69818;50.172;19.144;2023-05-06T21:11:32;101700;;;30.47;31
80493;BME280;69818;50.172;19.144;2023-05-06T21:16:42;101700;;;30.36;31
80493;BME280;69818;50.172;19.144;2023-05-06T21:21:53;101700;;;30.32;31
80493;BME280;69818;50.172;19.144;2023-05-06T21:27:04;101700;;;30.26;31
80493;BME280;69818;50.172;19.144;2023-05-06T21:32:15;101700;;;30.22;31
80493;BME280;69818;50.172;19.144;2023-05-06T21:37:25;101700;;;30.16;31
80493;BME280;69818;50.172;19.144;2023-05-06T21:42:36;101700;;;30.15;31
80493;BME280;69818;50.172;19.144;2023-05-06T21:47:48;101700;;;30.09;31
80493;BME280;69818;50.172;19.144;2023-05-06T21:52:57;101700;;;30.14;31
80493;BME280;69818;50.172;19.144;2023-05-06T21:58:08;101700;;;30.11;31
80493;BME280;69818;50.172;19.144;2023-05-06T22:03:19;101700;;;30.03;31
80493;BME280;69818;50.172;19.144;2023-05-06T22:08:30;101700;;;30.03;31
80493;BME280;69818;50.172;19.144;2023-05-06T22:13:40;101700;;;30.03;31
80493;BME280;69818;50.172;19.144;2023-05-06T22:18:51;101700;;;29.96;31
80493;BME280;69818;50.172;19.144;2023-05-06T22:24:02;101700;;;29.94;31
80493;BME280;69818;50.172;19.144;2023-05-06T22:29:13;101700;;;29.91;31
80493;BME280;69818;50.172;19.144;2023-05-06T22:34:23;101700;;;29.89;31
80493;BME280;69818;50.172;19.144;2023-05-06T22:39:34;101700;;;29.88;31
80493;BME280;69818;50.172;19.144;2023-05-06T22:44:45;101700;;;29.87;31
80493;BME280;69818;50.172;19.144;2023-05-06T22:49:56;101700;;;29.82;31
80493;BME280;69818;50.172;19.144;2023-05-06T22:55:07;101700;;;29.88;31
80493;BME280;69818;50.172;19.144;2023-05-06T23:00:17;101700;;;29.83;31
80493;BME280;69818;50.172;19.144;2023-05-06T23:05:28;101700;;;29.91;31
80493;BME280;69818;50.172;19.144;2023-05-06T23:10:39;101700;;;29.92;31
80493;BME280;69818;50.172;19.144;2023-05-06T23:15:49;101700;;;29.94;31
80493;BME280;69818;50.172;19.144;2023-05-06T23:21:00;101700;;;29.94;31
80493;BME280;69818;50.172;19.144;2023-05-06T23:26:11;101700;;;30.00;31
80493;BME280;69818;50.172;19.144;2023-05-06T23:31:22;101700;;;29.99;31
80493;BME280;69818;50.172;19.144;2023-05-06T23:36:32;101700;;;30.02;31
80493;BME280;69818;50.172;19.144;2023-05-06T23:41:43;101700;;;30.03;31
80493;BME280;69818;50.172;19.144;2023-05-06T23:46:54;101700;;;30.00;31
80493;BME280;69818;50.172;19.144;2023-05-06T23:52:05;101700;;;30.04;31
80493;BME280;69818;50.172;19.144;2023-05-06T23:57:15;101700;;;30.03;31
